Time;durP1;ratioP1;P1;durP2;ratioP2;P2;SDS_P1;SDS_P2;PMS_P1;PMS_P2;Temp;Humidity;BMP_temperature;BMP_pressure;BME280_temperature;BME280_humidity;BME280_pressure;Samples;Min_cycle;Max_cycle;Signal;HPM_P1;HPM_P2
2024/01/16 00:05:55;;;;;;;0.25;0.25;;;;;;;10.72;100.00;74934.69;6218230;23;20020;-86
2024/01/16 00:18:51;;;;;;;0.25;0.25;;;;;;;11.14;100.00;74986.44;6244870;23;20068;-85
2024/01/16 00:22:04;;;;;;;0.30;0.30;;;;;;;10.85;100.00;74952.38;6199922;23;20019;-86
2024/01/16 00:25:19;;;;;;;0.20;0.20;;;;;;;11.08;100.00;74979.25;6198774;23;20008;-86
2024/01/16 00:27:50;;;;;;;0.20;0.20;;;;;;;10.83;100.00;74947.22;6217548;23;19988;-86
2024/01/16 00:33:22;;;;;;;0.20;0.20;;;;;;;11.05;100.00;74978.44;6243445;22;20024;-86
2024/01/16 00:36:17;;;;;;;0.30;0.30;;;;;;;11.04;100.00;74974.50;6217325;23;20016;-86
2024/01/16 00:38:46;;;;;;;0.30;0.30;;;;;;;11.11;100.00;74982.84;6217880;23;20000;-86
2024/01/16 00:41:40;;;;;;;0.30;0.30;;;;;;;10.95;100.00;74959.38;6200214;23;20032;-86
2024/01/16 00:44:34;;;;;;;0.30;0.30;;;;;;;11.09;100.00;74983.84;6235555;23;19995;-86
2024/01/16 00:47:05;;;;;;;0.20;0.20;;;;;;;11.21;100.00;74997.56;6243345;23;20009;-86
2024/01/16 00:49:51;;;;;;;0.20;0.20;;;;;;;10.99;100.00;74966.94;6190483;23;20012;-86
2024/01/16 00:52:37;;;;;;;0.20;0.20;;;;;;;11.18;100.00;74991.22;6195361;23;20020;-86
2024/01/16 00:55:13;;;;;;;0.20;0.20;;;;;;;10.95;100.00;74970.44;6192616;23;20345;-86
2024/01/16 00:57:42;;;;;;;0.30;0.30;;;;;;;10.94;100.00;74960.97;6215192;23;20007;-86
2024/01/16 01:00:16;;;;;;;0.20;0.20;;;;;;;10.91;100.00;74957.38;6216670;23;20009;-86
2024/01/16 01:02:52;;;;;;;0.30;0.30;;;;;;;10.90;100.00;74958.94;6242820;23;19985;-86
2024/01/16 01:05:46;;;;;;;0.20;0.20;;;;;;;11.05;100.00;74975.69;6192071;23;20311;-86
2024/01/16 01:08:53;;;;;;;0.22;0.22;;;;;;;11.04;100.00;74974.50;6181278;23;20009;-85
2024/01/16 01:11:25;;;;;;;0.20;0.20;;;;;;;10.82;100.00;74946.63;6148992;23;19990;-86
2024/01/16 01:14:14;;;;;;;0.20;0.20;;;;;;;10.67;100.00;74931.47;6130229;23;20421;-86
2024/01/16 01:17:25;;;;;;;0.20;0.20;;;;;;;10.89;100.00;74962.69;6162987;23;20036;-86
2024/01/16 01:20:28;;;;;;;0.20;0.20;;;;;;;10.75;100.00;74938.25;6103071;23;20006;-86
2024/01/16 01:23:35;;;;;;;0.20;0.20;;;;;;;10.80;100.00;74946.41;6126770;23;20006;-86
2024/01/16 01:26:23;;;;;;;0.22;0.22;;;;;;;10.46;100.00;74904.81;6151027;23;19998;-86
2024/01/16 01:28:54;;;;;;;0.20;0.20;;;;;;;10.70;100.00;74935.63;6151887;23;19997;-86
2024/01/16 01:31:39;;;;;;;0.30;0.30;;;;;;;10.45;100.00;74906.38;6121281;23;19997;-86
2024/01/16 01:41:22;;;;;;;0.20;0.20;;;;;;;10.39;100.00;74898.63;6181559;23;20106;-86
2024/01/16 01:43:59;;;;;;;0.20;0.20;;;;;;;10.38;100.00;74894.66;6180509;23;19990;-86
2024/01/16 01:47:24;;;;;;;0.20;0.20;;;;;;;10.43;100.00;74903.38;6180700;23;20005;-85
2024/01/16 01:50:28;;;;;;;0.20;0.20;;;;;;;10.92;100.00;74958.59;6167000;23;20010;-86
2024/01/16 01:53:46;;;;;;;0.20;0.20;;;;;;;10.94;100.00;74960.97;6156024;23;20010;-87
2024/01/16 02:00:40;;;;;;;0.30;0.30;;;;;;;10.82;100.00;74948.81;6181985;23;20032;-86
2024/01/16 02:03:40;;;;;;;0.30;0.30;;;;;;;10.79;100.00;74945.81;6157091;23;20017;-86
2024/01/16 02:06:59;;;;;;;0.20;0.20;;;;;;;10.82;100.00;74949.41;6171805;23;19993;-86
2024/01/16 02:09:42;;;;;;;0.20;0.20;;;;;;;10.74;100.00;74939.81;6157089;23;20032;-87
2024/01/16 02:12:39;;;;;;;0.20;0.20;;;;;;;10.66;100.00;74930.88;6202594;23;20074;-86
2024/01/16 02:22:20;;;;;;;0.30;0.30;;;;;;;10.49;100.00;74916.69;6213625;23;20023;-86
2024/01/16 03:10:49;;;;;;;0.20;0.20;;;;;;;9.97;100.00;74849.63;6300457;22;20011;-86
2024/01/16 03:13:29;;;;;;;0.30;0.30;;;;;;;9.94;100.00;74852.16;6297773;22;20071;-86
2024/01/16 03:19:45;;;;;;;0.30;0.30;;;;;;;9.59;100.00;74804.84;6288872;22;20011;-86
2024/01/16 03:23:02;;;;;;;0.30;0.30;;;;;;;9.70;100.00;74815.81;6296163;22;19999;-86
2024/01/16 03:26:18;;;;;;;0.30;0.30;;;;;;;9.96;100.00;74849.03;6302642;22;20024;-86
2024/01/16 03:30:04;;;;;;;0.20;0.20;;;;;;;9.94;100.00;74846.63;6304233;22;20019;-86
2024/01/16 03:51:46;;;;;;;0.30;0.30;;;;;;;9.94;100.00;74843.88;6253691;22;20020;-86
2024/01/16 03:55:13;;;;;;;0.30;0.30;;;;;;;9.98;100.00;74850.81;6270650;22;20016;-85
2024/01/16 04:12:47;;;;;;;0.30;0.30;;;;;;;9.73;100.00;74820.97;6275424;22;20011;-86
2024/01/16 04:15:39;;;;;;;0.30;0.30;;;;;;;10.07;100.00;74863.75;6266342;22;20027;-88
2024/01/16 04:32:02;;;;;;;0.20;0.20;;;;;;;10.10;100.00;74870.06;6213271;23;20024;-86
2024/01/16 04:34:53;;;;;;;0.30;0.30;;;;;;;9.91;100.00;74843.06;6163222;23;19993;-86
2024/01/16 04:37:47;;;;;;;0.30;0.30;;;;;;;10.10;100.00;74865.13;6128517;23;20038;-85
2024/01/16 04:40:40;;;;;;;0.20;0.20;;;;;;;9.99;100.00;74849.25;6134330;23;19998;-85
2024/01/16 04:43:38;;;;;;;0.30;0.30;;;;;;;10.15;100.00;74865.59;6123579;23;19998;-86
2024/01/16 04:49:50;;;;;;;0.30;0.30;;;;;;;10.14;100.00;74869.34;6136937;23;20070;-85
2024/01/16 04:53:11;;;;;;;0.30;0.30;;;;;;;9.82;100.00;74831.72;6152548;23;19998;-86
2024/01/16 04:59:43;;;;;;;0.30;0.30;;;;;;;9.79;100.00;74828.72;6153171;23;20038;-86
2024/01/16 05:30:00;;;;;;;0.30;0.30;;;;;;;10.21;100.00;74872.75;6274550;22;20038;-85
2024/01/16 05:40:41;;;;;;;0.20;0.20;;;;;;;10.15;100.00;74871.13;6299519;22;20087;-85
2024/01/16 06:24:09;;;;;;;0.20;0.20;;;;;;;10.08;100.00;74862.16;6315408;22;20051;-85
